sensor_id;sensor_type;location;lat;lon;timestamp;temperature;humidity
70867;HTU21D;58487;53.474;49.470;2023-07-13T00:00:35;17.02;69.41
70867;HTU21D;58487;53.474;49.470;2023-07-13T00:03:02;17.05;68.51
70867;HTU21D;58487;53.474;49.470;2023-07-13T00:05:29;17.09;69.18
70867;HTU21D;58487;53.474;49.470;2023-07-13T00:07:55;17.17;68.05
70867;HTU21D;58487;53.474;49.470;2023-07-13T00:10:22;17.22;67.46
70867;HTU21D;58487;53.474;49.470;2023-07-13T00:12:48;17.19;67.15
70867;HTU21D;58487;53.474;49.470;2023-07-13T00:15:16;17.24;66.24
70867;HTU21D;58487;53.474;49.470;2023-07-13T00:17:42;17.23;65.98
70867;HTU21D;58487;53.474;49.470;2023-07-13T00:20:11;17.15;65.62
70867;HTU21D;58487;53.474;49.470;2023-07-13T00:22:38;17.01;66.44
70867;HTU21D;58487;53.474;49.470;2023-07-13T00:25:05;17.02;67.38
70867;HTU21D;58487;53.474;49.470;2023-07-13T00:27:31;16.96;68.05
70867;HTU21D;58487;53.474;49.470;2023-07-13T00:30:00;16.86;70.48
70867;HTU21D;58487;53.474;49.470;2023-07-13T00:32:27;16.67;73.03
70867;HTU21D;58487;53.474;49.470;2023-07-13T00:34:54;16.60;73.06
70867;HTU21D;58487;53.474;49.470;2023-07-13T00:37:20;16.60;74.12
70867;HTU21D;58487;53.474;49.470;2023-07-13T00:39:46;16.63;75.06
70867;HTU21D;58487;53.474;49.470;2023-07-13T00:42:12;16.71;74.48
70867;HTU21D;58487;53.474;49.470;2023-07-13T00:44:38;16.71;72.99
70867;HTU21D;58487;53.474;49.470;2023-07-13T00:47:06;16.86;71.72
70867;HTU21D;58487;53.474;49.470;2023-07-13T00:49:33;16.98;71.34
70867;HTU21D;58487;53.474;49.470;2023-07-13T00:52:07;17.06;71.42
70867;HTU21D;58487;53.474;49.470;2023-07-13T00:54:38;16.99;71.90
70867;HTU21D;58487;53.474;49.470;2023-07-13T00:57:15;16.93;72.00
70867;HTU21D;58487;53.474;49.470;2023-07-13T00:59:46;17.03;71.72
70867;HTU21D;58487;53.474;49.470;2023-07-13T01:02:13;17.06;71.65
70867;HTU21D;58487;53.474;49.470;2023-07-13T01:04:39;16.98;72.09
70867;HTU21D;58487;53.474;49.470;2023-07-13T01:07:06;16.82;74.64
70867;HTU21D;58487;53.474;49.470;2023-07-13T01:09:32;16.75;74.19
70867;HTU21D;58487;53.474;49.470;2023-07-13T01:11:58;16.74;75.50
70867;HTU21D;58487;53.474;49.470;2023-07-13T01:14:25;16.75;76.70
70867;HTU21D;58487;53.474;49.470;2023-07-13T01:16:52;16.66;79.24
70867;HTU21D;58487;53.474;49.470;2023-07-13T01:21:52;16.62;76.54
70867;HTU21D;58487;53.474;49.470;2023-07-13T01:24:19;16.64;76.17
70867;HTU21D;58487;53.474;49.470;2023-07-13T01:26:45;16.67;76.58
70867;HTU21D;58487;53.474;49.470;2023-07-13T01:29:11;16.81;75.67
70867;HTU21D;58487;53.474;49.470;2023-07-13T01:31:37;16.93;74.83
70867;HTU21D;58487;53.474;49.470;2023-07-13T01:34:03;17.00;76.02
70867;HTU21D;58487;53.474;49.470;2023-07-13T01:36:29;17.04;74.99
70867;HTU21D;58487;53.474;49.470;2023-07-13T01:38:55;16.92;75.35
70867;HTU21D;58487;53.474;49.470;2023-07-13T01:41:21;16.84;75.08
70867;HTU21D;58487;53.474;49.470;2023-07-13T01:43:46;16.60;74.42
70867;HTU21D;58487;53.474;49.470;2023-07-13T01:46:12;16.54;73.47
70867;HTU21D;58487;53.474;49.470;2023-07-13T01:48:38;16.42;74.12
70867;HTU21D;58487;53.474;49.470;2023-07-13T01:51:04;16.41;73.25
70867;HTU21D;58487;53.474;49.470;2023-07-13T01:53:30;16.34;73.66
70867;HTU21D;58487;53.474;49.470;2023-07-13T01:55:56;16.33;73.32
70867;HTU21D;58487;53.474;49.470;2023-07-13T01:58:22;16.28;74.80
70867;HTU21D;58487;53.474;49.470;2023-07-13T02:00:49;16.31;74.99
70867;HTU21D;58487;53.474;49.470;2023-07-13T02:03:15;16.27;74.51
70867;HTU21D;58487;53.474;49.470;2023-07-13T02:05:44;16.20;74.06
70867;HTU21D;58487;53.474;49.470;2023-07-13T02:08:11;16.29;73.42
70867;HTU21D;58487;53.474;49.470;2023-07-13T02:10:37;16.30;74.71
70867;HTU21D;58487;53.474;49.470;2023-07-13T02:13:05;16.36;74.06
70867;HTU21D;58487;53.474;49.470;2023-07-13T02:15:32;16.42;73.85
70867;HTU21D;58487;53.474;49.470;2023-07-13T02:17:58;16.44;73.11
70867;HTU21D;58487;53.474;49.470;2023-07-13T02:20:25;16.55;72.57
70867;HTU21D;58487;53.474;49.470;2023-07-13T02:22:52;16.52;74.00
70867;HTU21D;58487;53.474;49.470;2023-07-13T02:25:18;16.52;72.83
70867;HTU21D;58487;53.474;49.470;2023-07-13T02:27:44;16.62;73.11
70867;HTU21D;58487;53.474;49.470;2023-07-13T02:30:11;16.51;74.21
70867;HTU21D;58487;53.474;49.470;2023-07-13T02:32:37;16.42;76.86
70867;HTU21D;58487;53.474;49.470;2023-07-13T02:35:03;16.30;77.98
70867;HTU21D;58487;53.474;49.470;2023-07-13T02:37:29;16.30;77.47
70867;HTU21D;58487;53.474;49.470;2023-07-13T02:39:55;16.36;77.57
70867;HTU21D;58487;53.474;49.470;2023-07-13T02:42:21;16.35;78.90
70867;HTU21D;58487;53.474;49.470;2023-07-13T02:44:47;16.26;79.85
70867;HTU21D;58487;53.474;49.470;2023-07-13T02:47:16;16.36;79.47
70867;HTU21D;58487;53.474;49.470;2023-07-13T02:49:42;16.34;80.09
70867;HTU21D;58487;53.474;49.470;2023-07-13T02:52:08;16.37;78.54
70867;HTU21D;58487;53.474;49.470;2023-07-13T02:54:35;16.47;78.44
70867;HTU21D;58487;53.474;49.470;2023-07-13T02:57:01;16.54;78.51
70867;HTU21D;58487;53.474;49.470;2023-07-13T02:59:27;16.52;78.66
70867;HTU21D;58487;53.474;49.470;2023-07-13T03:01:53;16.61;78.46
70867;HTU21D;58487;53.474;49.470;2023-07-13T03:04:19;16.67;76.95
70867;HTU21D;58487;53.474;49.470;2023-07-13T03:06:45;16.58;80.03
70867;HTU21D;58487;53.474;49.470;2023-07-13T03:09:12;16.48;80.24
70867;HTU21D;58487;53.474;49.470;2023-07-13T03:11:38;16.20;80.04
70867;HTU21D;58487;53.474;49.470;2023-07-13T03:14:04;16.05;81.67
70867;HTU21D;58487;53.474;49.470;2023-07-13T03:16:30;15.98;83.14
70867;HTU21D;58487;53.474;49.470;2023-07-13T03:18:56;15.87;81.48
70867;HTU21D;58487;53.474;49.470;2023-07-13T03:21:22;15.90;86.62
70867;HTU21D;58487;53.474;49.470;2023-07-13T03:23:48;15.88;88.79
70867;HTU21D;58487;53.474;49.470;2023-07-13T03:26:17;15.92;85.74
70867;HTU21D;58487;53.474;49.470;2023-07-13T03:28:44;16.00;89.29
70867;HTU21D;58487;53.474;49.470;2023-07-13T03:31:16;15.98;85.59
70867;HTU21D;58487;53.474;49.470;2023-07-13T03:33:42;16.15;89.32
70867;HTU21D;58487;53.474;49.470;2023-07-13T03:36:17;16.08;84.02
70867;HTU21D;58487;53.474;49.470;2023-07-13T03:38:47;16.15;88.52
70867;HTU21D;58487;53.474;49.470;2023-07-13T03:41:14;16.28;84.51
70867;HTU21D;58487;53.474;49.470;2023-07-13T03:43:41;16.12;84.50
70867;HTU21D;58487;53.474;49.470;2023-07-13T03:46:07;16.10;83.90
70867;HTU21D;58487;53.474;49.470;2023-07-13T03:48:33;16.29;82.33
70867;HTU21D;58487;53.474;49.470;2023-07-13T03:50:59;16.42;85.30
70867;HTU21D;58487;53.474;49.470;2023-07-13T03:53:26;16.54;82.70
70867;HTU21D;58487;53.474;49.470;2023-07-13T03:55:52;16.56;79.03
70867;HTU21D;58487;53.474;49.470;2023-07-13T03:58:32;16.47;79.35
70867;HTU21D;58487;53.474;49.470;2023-07-13T04:00:59;16.58;82.84
70867;HTU21D;58487;53.474;49.470;2023-07-13T04:03:27;16.58;78.53
70867;HTU21D;58487;53.474;49.470;2023-07-13T04:05:56;16.71;78.22
70867;HTU21D;58487;53.474;49.470;2023-07-13T04:08:31;16.74;75.76
70867;HTU21D;58487;53.474;49.470;2023-07-13T04:10:58;16.65;77.28
70867;HTU21D;58487;53.474;49.470;2023-07-13T04:13:24;16.55;78.00
70867;HTU21D;58487;53.474;49.470;2023-07-13T04:15:52;16.50;80.00
70867;HTU21D;58487;53.474;49.470;2023-07-13T04:18:20;16.31;78.34
70867;HTU21D;58487;53.474;49.470;2023-07-13T04:20:47;16.47;77.22
70867;HTU21D;58487;53.474;49.470;2023-07-13T04:23:13;16.63;77.71
70867;HTU21D;58487;53.474;49.470;2023-07-13T04:25:43;16.40;79.04
70867;HTU21D;58487;53.474;49.470;2023-07-13T04:28:10;16.33;80.99
70867;HTU21D;58487;53.474;49.470;2023-07-13T04:30:35;16.32;81.84
70867;HTU21D;58487;53.474;49.470;2023-07-13T04:33:02;16.47;82.44
70867;HTU21D;58487;53.474;49.470;2023-07-13T04:35:28;16.67;82.22
70867;HTU21D;58487;53.474;49.470;2023-07-13T04:37:54;16.87;80.75
70867;HTU21D;58487;53.474;49.470;2023-07-13T04:40:20;16.99;83.89
70867;HTU21D;58487;53.474;49.470;2023-07-13T04:42:47;16.96;79.62
70867;HTU21D;58487;53.474;49.470;2023-07-13T04:45:14;16.98;78.27
70867;HTU21D;58487;53.474;49.470;2023-07-13T04:47:41;16.94;76.41
70867;HTU21D;58487;53.474;49.470;2023-07-13T04:50:08;16.89;78.32
70867;HTU21D;58487;53.474;49.470;2023-07-13T04:52:36;17.01;79.37
70867;HTU21D;58487;53.474;49.470;2023-07-13T04:55:03;17.01;76.59
70867;HTU21D;58487;53.474;49.470;2023-07-13T04:57:31;16.90;77.44
70867;HTU21D;58487;53.474;49.470;2023-07-13T04:59:59;16.98;77.81
70867;HTU21D;58487;53.474;49.470;2023-07-13T05:02:27;16.98;77.05
70867;HTU21D;58487;53.474;49.470;2023-07-13T05:04:54;17.14;79.81
70867;HTU21D;58487;53.474;49.470;2023-07-13T05:07:21;17.25;78.27
70867;HTU21D;58487;53.474;49.470;2023-07-13T05:09:47;17.39;76.35
70867;HTU21D;58487;53.474;49.470;2023-07-13T05:12:13;17.61;78.02
70867;HTU21D;58487;53.474;49.470;2023-07-13T05:14:39;17.70;77.74
70867;HTU21D;58487;53.474;49.470;2023-07-13T05:17:05;17.60;76.01
70867;HTU21D;58487;53.474;49.470;2023-07-13T05:19:31;17.63;78.46
70867;HTU21D;58487;53.474;49.470;2023-07-13T05:21:57;17.80;76.63
70867;HTU21D;58487;53.474;49.470;2023-07-13T05:24:24;17.83;76.48
70867;HTU21D;58487;53.474;49.470;2023-07-13T05:26:50;17.99;75.19
70867;HTU21D;58487;53.474;49.470;2023-07-13T05:29:16;18.06;76.02
70867;HTU21D;58487;53.474;49.470;2023-07-13T05:31:42;18.10;75.33
70867;HTU21D;58487;53.474;49.470;2023-07-13T05:34:08;18.10;78.15
70867;HTU21D;58487;53.474;49.470;2023-07-13T05:36:34;17.97;74.70
70867;HTU21D;58487;53.474;49.470;2023-07-13T05:39:00;18.02;76.63
70867;HTU21D;58487;53.474;49.470;2023-07-13T05:41:27;17.97;75.49
70867;HTU21D;58487;53.474;49.470;2023-07-13T05:43:53;18.05;73.62
70867;HTU21D;58487;53.474;49.470;2023-07-13T05:46:19;17.97;74.79
70867;HTU21D;58487;53.474;49.470;2023-07-13T05:48:45;18.04;73.65
70867;HTU21D;58487;53.474;49.470;2023-07-13T05:51:11;18.13;74.35
70867;HTU21D;58487;53.474;49.470;2023-07-13T05:53:37;18.28;72.29
70867;HTU21D;58487;53.474;49.470;2023-07-13T05:56:04;18.38;70.68
70867;HTU21D;58487;53.474;49.470;2023-07-13T05:58:31;18.59;70.75
70867;HTU21D;58487;53.474;49.470;2023-07-13T06:01:05;18.76;68.49
70867;HTU21D;58487;53.474;49.470;2023-07-13T06:03:32;18.84;73.54
70867;HTU21D;58487;53.474;49.470;2023-07-13T06:05:58;18.83;71.58
70867;HTU21D;58487;53.474;49.470;2023-07-13T06:08:27;18.87;70.16
70867;HTU21D;58487;53.474;49.470;2023-07-13T06:10:53;18.74;73.28
70867;HTU21D;58487;53.474;49.470;2023-07-13T06:13:21;18.65;73.54
70867;HTU21D;58487;53.474;49.470;2023-07-13T06:15:50;18.34;74.90
70867;HTU21D;58487;53.474;49.470;2023-07-13T06:18:16;18.46;72.88
70867;HTU21D;58487;53.474;49.470;2023-07-13T06:20:42;18.68;72.09
70867;HTU21D;58487;53.474;49.470;2023-07-13T06:23:08;18.76;68.65
70867;HTU21D;58487;53.474;49.470;2023-07-13T06:25:34;18.81;66.61
70867;HTU21D;58487;53.474;49.470;2023-07-13T06:28:00;18.80;66.46
70867;HTU21D;58487;53.474;49.470;2023-07-13T06:30:26;18.82;66.27
70867;HTU21D;58487;53.474;49.470;2023-07-13T06:32:52;18.77;67.62
70867;HTU21D;58487;53.474;49.470;2023-07-13T06:35:18;18.85;68.04
70867;HTU21D;58487;53.474;49.470;2023-07-13T06:37:44;18.71;69.73
70867;HTU21D;58487;53.474;49.470;2023-07-13T06:40:10;18.72;70.29
70867;HTU21D;58487;53.474;49.470;2023-07-13T06:42:36;18.80;74.09
70867;HTU21D;58487;53.474;49.470;2023-07-13T06:45:04;18.77;71.79
70867;HTU21D;58487;53.474;49.470;2023-07-13T06:47:30;18.70;69.06
70867;HTU21D;58487;53.474;49.470;2023-07-13T06:49:57;18.78;73.35
70867;HTU21D;58487;53.474;49.470;2023-07-13T06:52:23;18.78;73.25
70867;HTU21D;58487;53.474;49.470;2023-07-13T06:54:49;18.72;70.91
70867;HTU21D;58487;53.474;49.470;2023-07-13T06:57:15;18.94;72.37
70867;HTU21D;58487;53.474;49.470;2023-07-13T06:59:41;18.93;69.31
70867;HTU21D;58487;53.474;49.470;2023-07-13T07:02:10;19.13;72.93
70867;HTU21D;58487;53.474;49.470;2023-07-13T07:04:36;19.47;69.36
70867;HTU21D;58487;53.474;49.470;2023-07-13T07:07:02;19.52;69.20
70867;HTU21D;58487;53.474;49.470;2023-07-13T07:09:28;19.30;70.62
70867;HTU21D;58487;53.474;49.470;2023-07-13T07:11:57;19.23;68.11
70867;HTU21D;58487;53.474;49.470;2023-07-13T07:14:23;19.24;68.71
70867;HTU21D;58487;53.474;49.470;2023-07-13T07:16:50;19.35;68.97
70867;HTU21D;58487;53.474;49.470;2023-07-13T07:19:16;19.36;67.75
70867;HTU21D;58487;53.474;49.470;2023-07-13T07:21:42;19.53;69.66
70867;HTU21D;58487;53.474;49.470;2023-07-13T07:24:08;19.59;69.31
70867;HTU21D;58487;53.474;49.470;2023-07-13T07:26:34;19.62;67.73
70867;HTU21D;58487;53.474;49.470;2023-07-13T07:29:00;19.56;70.54
70867;HTU21D;58487;53.474;49.470;2023-07-13T07:31:26;19.37;66.48
70867;HTU21D;58487;53.474;49.470;2023-07-13T07:33:53;19.32;69.28
70867;HTU21D;58487;53.474;49.470;2023-07-13T07:36:19;19.09;64.88
70867;HTU21D;58487;53.474;49.470;2023-07-13T07:38:46;18.91;68.55
70867;HTU21D;58487;53.474;49.470;2023-07-13T07:41:12;19.15;67.33
70867;HTU21D;58487;53.474;49.470;2023-07-13T07:43:39;19.12;67.43
70867;HTU21D;58487;53.474;49.470;2023-07-13T07:46:05;19.13;68.23
70867;HTU21D;58487;53.474;49.470;2023-07-13T07:48:32;19.13;67.40
70867;HTU21D;58487;53.474;49.470;2023-07-13T07:50:58;19.09;66.87
70867;HTU21D;58487;53.474;49.470;2023-07-13T07:53:24;19.00;69.22
70867;HTU21D;58487;53.474;49.470;2023-07-13T07:55:50;19.05;70.35
70867;HTU21D;58487;53.474;49.470;2023-07-13T07:58:17;19.24;69.23
70867;HTU21D;58487;53.474;49.470;2023-07-13T08:00:42;19.35;65.95
70867;HTU21D;58487;53.474;49.470;2023-07-13T08:03:09;19.44;67.65
70867;HTU21D;58487;53.474;49.470;2023-07-13T08:05:36;19.66;65.11
70867;HTU21D;58487;53.474;49.470;2023-07-13T08:08:02;19.66;61.76
70867;HTU21D;58487;53.474;49.470;2023-07-13T08:10:29;19.86;62.68
70867;HTU21D;58487;53.474;49.470;2023-07-13T08:12:55;20.04;59.74
70867;HTU21D;58487;53.474;49.470;2023-07-13T08:15:21;20.20;63.42
70867;HTU21D;58487;53.474;49.470;2023-07-13T08:17:48;20.19;61.31
70867;HTU21D;58487;53.474;49.470;2023-07-13T08:20:14;20.26;63.78
70867;HTU21D;58487;53.474;49.470;2023-07-13T08:22:40;20.44;58.67
70867;HTU21D;58487;53.474;49.470;2023-07-13T08:25:07;20.42;61.02
70867;HTU21D;58487;53.474;49.470;2023-07-13T08:27:33;20.39;61.99
70867;HTU21D;58487;53.474;49.470;2023-07-13T08:30:00;20.56;61.90
70867;HTU21D;58487;53.474;49.470;2023-07-13T08:32:26;20.48;62.66
70867;HTU21D;58487;53.474;49.470;2023-07-13T08:34:53;20.37;63.17
70867;HTU21D;58487;53.474;49.470;2023-07-13T08:37:19;20.60;62.75
70867;HTU21D;58487;53.474;49.470;2023-07-13T08:39:45;20.93;64.40
70867;HTU21D;58487;53.474;49.470;2023-07-13T08:47:39;20.98;62.97
70867;HTU21D;58487;53.474;49.470;2023-07-13T08:50:12;20.90;62.73
70867;HTU21D;58487;53.474;49.470;2023-07-13T08:52:41;20.78;61.40
70867;HTU21D;58487;53.474;49.470;2023-07-13T08:55:21;20.68;63.76
70867;HTU21D;58487;53.474;49.470;2023-07-13T08:58:17;20.84;62.46
70867;HTU21D;58487;53.474;49.470;2023-07-13T09:01:12;20.58;60.44
70867;HTU21D;58487;53.474;49.470;2023-07-13T09:03:50;20.34;62.97
70867;HTU21D;58487;53.474;49.470;2023-07-13T09:06:23;20.40;62.59
70867;HTU21D;58487;53.474;49.470;2023-07-13T09:09:02;20.70;59.32
70867;HTU21D;58487;53.474;49.470;2023-07-13T09:11:58;21.00;56.76
70867;HTU21D;58487;53.474;49.470;2023-07-13T09:14:35;21.13;59.18
70867;HTU21D;58487;53.474;49.470;2023-07-13T09:17:07;20.98;60.60
70867;HTU21D;58487;53.474;49.470;2023-07-13T09:19:36;20.77;61.08
70867;HTU21D;58487;53.474;49.470;2023-07-13T09:22:05;20.63;60.37
70867;HTU21D;58487;53.474;49.470;2023-07-13T09:27:26;20.87;60.95
70867;HTU21D;58487;53.474;49.470;2023-07-13T09:30:01;20.98;60.70
70867;HTU21D;58487;53.474;49.470;2023-07-13T09:32:28;21.01;60.08
70867;HTU21D;58487;53.474;49.470;2023-07-13T09:34:55;20.90;61.56
70867;HTU21D;58487;53.474;49.470;2023-07-13T09:37:24;20.63;59.74
70867;HTU21D;58487;53.474;49.470;2023-07-13T09:39:55;20.71;61.70
70867;HTU21D;58487;53.474;49.470;2023-07-13T09:42:22;20.57;60.73
70867;HTU21D;58487;53.474;49.470;2023-07-13T09:44:54;20.78;61.30
70867;HTU21D;58487;53.474;49.470;2023-07-13T09:47:29;21.04;59.58
70867;HTU21D;58487;53.474;49.470;2023-07-13T09:49:58;21.03;58.83
70867;HTU21D;58487;53.474;49.470;2023-07-13T09:52:25;21.59;57.08
70867;HTU21D;58487;53.474;49.470;2023-07-13T09:54:54;22.06;54.78
70867;HTU21D;58487;53.474;49.470;2023-07-13T09:57:27;22.58;60.17
70867;HTU21D;58487;53.474;49.470;2023-07-13T09:59:55;22.64;54.14
70867;HTU21D;58487;53.474;49.470;2023-07-13T10:02:34;22.88;52.14
70867;HTU21D;58487;53.474;49.470;2023-07-13T10:05:06;22.98;50.40
70867;HTU21D;58487;53.474;49.470;2023-07-13T10:07:44;22.80;50.05
70867;HTU21D;58487;53.474;49.470;2023-07-13T10:10:16;22.58;48.97
70867;HTU21D;58487;53.474;49.470;2023-07-13T10:12:44;22.61;51.00
70867;HTU21D;58487;53.474;49.470;2023-07-13T10:15:19;22.28;58.32
70867;HTU21D;58487;53.474;49.470;2023-07-13T10:17:46;22.35;49.22
70867;HTU21D;58487;53.474;49.470;2023-07-13T10:20:12;22.03;51.43
70867;HTU21D;58487;53.474;49.470;2023-07-13T10:25:18;20.74;53.76
70867;HTU21D;58487;53.474;49.470;2023-07-13T10:27:45;20.59;58.51
70867;HTU21D;58487;53.474;49.470;2023-07-13T10:30:23;19.95;60.11
70867;HTU21D;58487;53.474;49.470;2023-07-13T10:33:00;19.43;64.63
70867;HTU21D;58487;53.474;49.470;2023-07-13T10:35:27;19.01;62.84
70867;HTU21D;58487;53.474;49.470;2023-07-13T10:38:21;18.82;60.10
70867;HTU21D;58487;53.474;49.470;2023-07-13T10:41:02;18.72;65.12
70867;HTU21D;58487;53.474;49.470;2023-07-13T10:43:41;18.59;63.14
70867;HTU21D;58487;53.474;49.470;2023-07-13T10:46:11;18.56;60.12
70867;HTU21D;58487;53.474;49.470;2023-07-13T10:48:39;18.49;61.67
70867;HTU21D;58487;53.474;49.470;2023-07-13T10:51:06;18.53;57.57
70867;HTU21D;58487;53.474;49.470;2023-07-13T10:53:34;18.61;55.21
70867;HTU21D;58487;53.474;49.470;2023-07-13T10:56:05;18.55;54.23
70867;HTU21D;58487;53.474;49.470;2023-07-13T10:58:36;18.25;54.88
70867;HTU21D;58487;53.474;49.470;2023-07-13T11:01:07;18.41;58.79
70867;HTU21D;58487;53.474;49.470;2023-07-13T11:03:36;18.48;55.74
70867;HTU21D;58487;53.474;49.470;2023-07-13T11:08:55;18.33;57.71
70867;HTU21D;58487;53.474;49.470;2023-07-13T11:19:24;18.17;66.27
70867;HTU21D;58487;53.474;49.470;2023-07-13T11:24:57;17.76;68.39
70867;HTU21D;58487;53.474;49.470;2023-07-13T11:27:45;17.91;67.39
70867;HTU21D;58487;53.474;49.470;2023-07-13T11:35:36;19.10;66.85
70867;HTU21D;58487;53.474;49.470;2023-07-13T11:38:15;20.12;60.64
70867;HTU21D;58487;53.474;49.470;2023-07-13T11:40:44;20.50;60.07
70867;HTU21D;58487;53.474;49.470;2023-07-13T11:43:16;20.34;56.13
70867;HTU21D;58487;53.474;49.470;2023-07-13T11:45:43;20.44;55.87
70867;HTU21D;58487;53.474;49.470;2023-07-13T11:48:26;20.60;52.73
70867;HTU21D;58487;53.474;49.470;2023-07-13T11:50:57;21.52;53.04
70867;HTU21D;58487;53.474;49.470;2023-07-13T11:53:27;21.52;52.49
70867;HTU21D;58487;53.474;49.470;2023-07-13T11:55:53;21.96;54.20
70867;HTU21D;58487;53.474;49.470;2023-07-13T11:58:23;22.31;51.53
70867;HTU21D;58487;53.474;49.470;2023-07-13T12:00:51;22.65;50.82
70867;HTU21D;58487;53.474;49.470;2023-07-13T12:03:22;23.06;49.32
70867;HTU21D;58487;53.474;49.470;2023-07-13T12:05:58;23.06;50.63
70867;HTU21D;58487;53.474;49.470;2023-07-13T12:08:27;22.78;52.15
70867;HTU21D;58487;53.474;49.470;2023-07-13T12:11:04;22.57;51.90
70867;HTU21D;58487;53.474;49.470;2023-07-13T12:13:36;22.76;48.26
70867;HTU21D;58487;53.474;49.470;2023-07-13T12:16:12;23.24;46.06
70867;HTU21D;58487;53.474;49.470;2023-07-13T12:18:39;23.08;46.64
70867;HTU21D;58487;53.474;49.470;2023-07-13T12:21:10;23.67;44.70
70867;HTU21D;58487;53.474;49.470;2023-07-13T12:23:38;23.70;45.14
70867;HTU21D;58487;53.474;49.470;2023-07-13T12:26:06;23.18;50.69
70867;HTU21D;58487;53.474;49.470;2023-07-13T12:28:37;22.90;48.12
70867;HTU21D;58487;53.474;49.470;2023-07-13T12:34:13;22.18;51.96
70867;HTU21D;58487;53.474;49.470;2023-07-13T12:36:49;22.22;46.35
70867;HTU21D;58487;53.474;49.470;2023-07-13T12:39:23;22.70;46.51
70867;HTU21D;58487;53.474;49.470;2023-07-13T12:41:51;23.05;46.77
70867;HTU21D;58487;53.474;49.470;2023-07-13T12:44:24;22.88;46.60
70867;HTU21D;58487;53.474;49.470;2023-07-13T12:47:19;23.01;46.36
70867;HTU21D;58487;53.474;49.470;2023-07-13T12:49:53;23.34;45.26
70867;HTU21D;58487;53.474;49.470;2023-07-13T12:52:33;23.28;45.35
70867;HTU21D;58487;53.474;49.470;2023-07-13T12:55:21;23.96;38.18
70867;HTU21D;58487;53.474;49.470;2023-07-13T12:57:55;23.86;40.47
70867;HTU21D;58487;53.474;49.470;2023-07-13T13:00:29;23.87;38.24
70867;HTU21D;58487;53.474;49.470;2023-07-13T13:03:02;23.76;39.95
70867;HTU21D;58487;53.474;49.470;2023-07-13T13:05:30;23.66;39.51
70867;HTU21D;58487;53.474;49.470;2023-07-13T13:07:57;24.21;38.57
70867;HTU21D;58487;53.474;49.470;2023-07-13T13:10:23;24.70;37.70
70867;HTU21D;58487;53.474;49.470;2023-07-13T13:12:50;25.77;37.58
70867;HTU21D;58487;53.474;49.470;2023-07-13T13:15:16;26.08;38.55
70867;HTU21D;58487;53.474;49.470;2023-07-13T13:17:42;26.67;34.41
70867;HTU21D;58487;53.474;49.470;2023-07-13T13:20:21;27.40;33.61
70867;HTU21D;58487;53.474;49.470;2023-07-13T13:22:48;27.88;32.84
70867;HTU21D;58487;53.474;49.470;2023-07-13T13:25:15;27.83;34.64
70867;HTU21D;58487;53.474;49.470;2023-07-13T13:27:42;26.25;40.13
70867;HTU21D;58487;53.474;49.470;2023-07-13T13:30:12;25.36;39.51
70867;HTU21D;58487;53.474;49.470;2023-07-13T13:32:46;24.34;46.78
70867;HTU21D;58487;53.474;49.470;2023-07-13T13:35:15;23.73;46.06
70867;HTU21D;58487;53.474;49.470;2023-07-13T13:37:42;23.35;47.65
70867;HTU21D;58487;53.474;49.470;2023-07-13T13:42:42;22.66;49.60
70867;HTU21D;58487;53.474;49.470;2023-07-13T13:45:10;22.28;50.58
70867;HTU21D;58487;53.474;49.470;2023-07-13T13:47:36;22.22;50.61
70867;HTU21D;58487;53.474;49.470;2023-07-13T13:50:15;22.27;50.73
70867;HTU21D;58487;53.474;49.470;2023-07-13T13:52:42;23.09;43.54
70867;HTU21D;58487;53.474;49.470;2023-07-13T13:55:16;23.90;39.24
70867;HTU21D;58487;53.474;49.470;2023-07-13T13:57:45;24.71;40.13
70867;HTU21D;58487;53.474;49.470;2023-07-13T14:00:12;24.94;40.09
70867;HTU21D;58487;53.474;49.470;2023-07-13T14:02:46;25.22;40.90
70867;HTU21D;58487;53.474;49.470;2023-07-13T14:05:15;25.34;41.65
70867;HTU21D;58487;53.474;49.470;2023-07-13T14:07:41;24.66;42.90
70867;HTU21D;58487;53.474;49.470;2023-07-13T14:10:17;24.63;43.82
70867;HTU21D;58487;53.474;49.470;2023-07-13T14:12:47;24.54;45.84
70867;HTU21D;58487;53.474;49.470;2023-07-13T14:15:22;23.95;45.24
70867;HTU21D;58487;53.474;49.470;2023-07-13T14:17:48;23.71;45.16
70867;HTU21D;58487;53.474;49.470;2023-07-13T14:20:19;23.43;45.07
70867;HTU21D;58487;53.474;49.470;2023-07-13T14:22:46;23.01;47.69
70867;HTU21D;58487;53.474;49.470;2023-07-13T14:25:13;22.73;49.67
70867;HTU21D;58487;53.474;49.470;2023-07-13T14:27:41;22.57;48.87
70867;HTU21D;58487;53.474;49.470;2023-07-13T14:30:15;22.57;49.34
70867;HTU21D;58487;53.474;49.470;2023-07-13T14:32:41;22.60;49.01
70867;HTU21D;58487;53.474;49.470;2023-07-13T14:35:11;22.69;48.24
70867;HTU21D;58487;53.474;49.470;2023-07-13T14:37:39;22.62;49.15
70867;HTU21D;58487;53.474;49.470;2023-07-13T14:40:14;22.33;51.48
70867;HTU21D;58487;53.474;49.470;2023-07-13T14:42:40;22.20;51.91
70867;HTU21D;58487;53.474;49.470;2023-07-13T14:45:15;22.26;50.50
70867;HTU21D;58487;53.474;49.470;2023-07-13T14:47:43;22.11;49.79
70867;HTU21D;58487;53.474;49.470;2023-07-13T14:50:18;22.34;48.29
70867;HTU21D;58487;53.474;49.470;2023-07-13T14:52:45;23.13;48.34
70867;HTU21D;58487;53.474;49.470;2023-07-13T14:55:16;22.97;47.21
70867;HTU21D;58487;53.474;49.470;2023-07-13T14:57:42;23.11;47.33
70867;HTU21D;58487;53.474;49.470;2023-07-13T15:00:21;23.72;47.53
70867;HTU21D;58487;53.474;49.470;2023-07-13T15:02:51;23.14;48.20
70867;HTU21D;58487;53.474;49.470;2023-07-13T15:05:24;22.83;49.88
70867;HTU21D;58487;53.474;49.470;2023-07-13T15:07:51;22.60;51.12
70867;HTU21D;58487;53.474;49.470;2023-07-13T15:10:21;22.60;49.36
70867;HTU21D;58487;53.474;49.470;2023-07-13T15:12:47;22.27;52.18
70867;HTU21D;58487;53.474;49.470;2023-07-13T15:15:14;22.31;51.25
70867;HTU21D;58487;53.474;49.470;2023-07-13T15:17:47;22.33;48.70
70867;HTU21D;58487;53.474;49.470;2023-07-13T15:20:27;22.49;48.41
70867;HTU21D;58487;53.474;49.470;2023-07-13T15:22:54;22.39;50.56
70867;HTU21D;58487;53.474;49.470;2023-07-13T15:25:24;22.43;49.85
70867;HTU21D;58487;53.474;49.470;2023-07-13T15:27:52;22.37;51.21
70867;HTU21D;58487;53.474;49.470;2023-07-13T15:30:19;22.31;50.74
70867;HTU21D;58487;53.474;49.470;2023-07-13T15:32:46;22.34;50.21
70867;HTU21D;58487;53.474;49.470;2023-07-13T15:35:18;22.44;51.28
70867;HTU21D;58487;53.474;49.470;2023-07-13T15:37:45;22.36;51.21
70867;HTU21D;58487;53.474;49.470;2023-07-13T15:40:12;22.17;51.14
70867;HTU21D;58487;53.474;49.470;2023-07-13T15:42:40;21.85;51.95
70867;HTU21D;58487;53.474;49.470;2023-07-13T15:45:20;21.90;51.56
70867;HTU21D;58487;53.474;49.470;2023-07-13T15:47:48;21.91;49.84
70867;HTU21D;58487;53.474;49.470;2023-07-13T15:50:20;21.90;52.53